Time;durP1;ratioP1;P1;durP2;ratioP2;P2;SDS_P1;SDS_P2;PMS_P1;PMS_P2;Temp;Humidity;BMP_temperature;BMP_pressure;BME280_temperature;BME280_humidity;BME280_pressure;Samples;Min_cycle;Max_cycle;Signal;HPM_P1;HPM_P2
2022/12/22 03:26:27;;;;;;;14.07;4.88;;;;;;;4.62;100.00;98781.03;5022880;28;20034;-84
2022/12/22 03:28:54;;;;;;;21.73;4.68;;;;;;;4.64;100.00;98773.88;5007646;28;20029;-84
2022/12/22 03:31:20;;;;;;;19.60;4.85;;;;;;;4.68;100.00;98771.78;5005569;28;20041;-84
2022/12/22 03:33:46;;;;;;;16.50;4.63;;;;;;;4.75;100.00;98772.00;5025073;28;20112;-84
2022/12/22 03:36:13;;;;;;;22.83;4.60;;;;;;;4.78;100.00;98779.59;5033435;28;20840;-84
2022/12/22 03:38:39;;;;;;;15.63;4.30;;;;;;;4.80;100.00;98762.75;5031695;28;20033;-79
2022/12/22 03:41:05;;;;;;;14.77;4.32;;;;;;;4.82;100.00;98754.75;5042691;28;20035;-79
2022/12/22 03:46:29;;;;;;;18.85;4.53;;;;;;;4.90;100.00;98777.56;5027073;28;20034;-85
2022/12/22 03:49:09;;;;;;;23.88;5.47;;;;;;;4.90;100.00;98774.94;5025598;28;20029;-84
2022/12/22 03:51:37;;;;;;;15.35;5.32;;;;;;;4.89;100.00;98775.94;5026235;28;20571;-84
2022/12/22 03:54:02;;;;;;;18.35;5.50;;;;;;;4.88;100.00;98761.16;5043737;28;20060;-84
2022/12/22 03:56:28;;;;;;;15.75;5.60;;;;;;;4.92;100.00;98757.31;5026004;28;20417;-84
2022/12/22 03:58:54;;;;;;;14.50;6.00;;;;;;;4.94;100.00;98757.97;5017304;28;20069;-84
2022/12/22 04:01:20;;;;;;;16.58;5.65;;;;;;;4.99;100.00;98757.50;5021170;28;20076;-84
2022/12/22 04:03:48;;;;;;;11.88;5.78;;;;;;;5.01;100.00;98755.56;5021847;28;20040;-84
2022/12/22 04:06:14;;;;;;;21.63;6.35;;;;;;;5.00;100.00;98759.97;5025567;28;20224;-83
2022/12/22 04:08:40;;;;;;;24.35;6.55;;;;;;;5.03;100.00;98762.28;5033322;28;20032;-79
2022/12/22 04:13:50;;;;;;;12.10;4.68;;;;;;;5.01;100.00;98752.94;5041663;28;20064;-83
2022/12/22 04:16:16;;;;;;;12.32;4.38;;;;;;;5.02;100.00;98758.03;5025534;28;20021;-84
2022/12/22 04:18:42;;;;;;;8.10;3.20;;;;;;;5.03;100.00;98753.63;5033460;28;20088;-79
2022/12/22 04:21:07;;;;;;;6.55;3.58;;;;;;;5.02;100.00;98751.97;5023772;28;20033;-79
2022/12/22 04:23:33;;;;;;;10.32;4.13;;;;;;;5.01;100.00;98748.53;5026950;28;20108;-84
2022/12/22 04:25:59;;;;;;;7.93;3.90;;;;;;;5.00;100.00;98757.34;5032066;28;20034;-84
2022/12/22 04:28:25;;;;;;;7.43;3.58;;;;;;;5.00;100.00;98749.50;5023863;28;20490;-83
2022/12/22 04:30:50;;;;;;;12.43;3.97;;;;;;;4.97;100.00;98745.41;5022882;28;20037;-84
2022/12/22 04:33:17;;;;;;;7.85;3.95;;;;;;;5.00;100.00;98749.50;5027494;28;20501;-79
2022/12/22 04:35:43;;;;;;;8.55;4.43;;;;;;;4.99;100.00;98744.41;5028141;28;20504;-79
2022/12/22 04:38:08;;;;;;;8.68;4.20;;;;;;;5.02;100.00;98746.72;5028595;28;20033;-84
2022/12/22 04:40:35;;;;;;;9.13;3.90;;;;;;;5.05;100.00;98749.03;5029600;28;20034;-84
2022/12/22 04:43:01;;;;;;;8.30;4.32;;;;;;;5.06;100.00;98746.31;5048479;28;20037;-84
2022/12/22 04:45:27;;;;;;;5.82;3.17;;;;;;;5.09;100.00;98745.16;5031086;28;21214;-84
2022/12/22 04:47:53;;;;;;;7.65;2.72;;;;;;;5.12;100.00;98750.09;5028646;28;20025;-84
2022/12/22 04:50:19;;;;;;;7.63;2.33;;;;;;;5.14;100.00;98744.72;5023800;28;20026;-84
2022/12/22 04:52:45;;;;;;;3.97;1.98;;;;;;;5.16;100.00;98742.78;5031867;28;20296;-84
2022/12/22 04:55:10;;;;;;;5.97;2.40;;;;;;;5.15;100.00;98749.81;5010755;28;20080;-84
2022/12/22 04:57:36;;;;;;;4.60;2.13;;;;;;;5.17;100.00;98747.03;5016472;28;20442;-84
2022/12/22 05:00:04;;;;;;;3.85;1.65;;;;;;;5.21;100.00;98753.59;5008722;28;20042;-84
2022/12/22 05:02:29;;;;;;;6.65;1.80;;;;;;;5.20;100.00;98752.81;5026121;28;20569;-80
2022/12/22 05:04:55;;;;;;;3.28;1.67;;;;;;;5.20;100.00;98757.22;5027401;28;20036;-79
2022/12/22 05:07:21;;;;;;;2.58;1.65;;;;;;;5.22;100.00;98763.13;5029263;28;20026;-84
2022/12/22 05:09:47;;;;;;;5.70;1.45;;;;;;;5.22;100.00;98757.88;5029290;28;20500;-84
2022/12/22 05:14:57;;;;;;;4.07;1.60;;;;;;;5.24;100.00;98749.88;5040492;28;20037;-84
2022/12/22 05:17:23;;;;;;;2.22;1.27;;;;;;;5.23;100.00;98751.66;5044197;28;20037;-84
2022/12/22 05:19:48;;;;;;;4.82;2.03;;;;;;;5.21;100.00;98749.19;5025048;28;20037;-84
2022/12/22 05:22:14;;;;;;;4.50;1.40;;;;;;;5.19;100.00;98753.75;5040498;28;20040;-84
2022/12/22 05:24:40;;;;;;;2.85;1.60;;;;;;;5.18;100.00;98754.75;5027120;28;20061;-84
2022/12/22 05:27:06;;;;;;;6.80;1.98;;;;;;;5.19;100.00;98758.19;5038927;28;20041;-84
2022/12/22 05:29:31;;;;;;;6.35;1.20;;;;;;;5.18;100.00;98759.97;5023727;28;20045;-84
2022/12/22 05:31:57;;;;;;;5.53;1.90;;;;;;;5.20;100.00;98757.22;5026539;28;20430;-84
2022/12/22 05:34:23;;;;;;;3.45;1.27;;;;;;;5.19;100.00;98758.19;5018019;28;20386;-84
2022/12/22 05:36:49;;;;;;;2.70;1.27;;;;;;;5.20;100.00;98760.66;5010242;28;20509;-84
2022/12/22 05:39:14;;;;;;;3.63;0.70;;;;;;;5.20;100.00;98767.69;5029291;28;20033;-84
2022/12/22 05:41:40;;;;;;;2.20;1.10;;;;;;;5.18;100.00;98767.84;5025855;28;20536;-83
2022/12/22 05:44:06;;;;;;;2.65;1.27;;;;;;;5.19;100.00;98772.09;5027768;28;20517;-84
2022/12/22 05:46:32;;;;;;;1.80;1.00;;;;;;;5.20;100.00;98778.16;5028866;28;20091;-85
2022/12/22 05:48:57;;;;;;;4.38;1.58;;;;;;;5.18;100.00;98778.31;5031493;28;20036;-84
2022/12/22 05:51:23;;;;;;;1.40;1.10;;;;;;;5.19;100.00;98777.31;5011323;28;20033;-85
2022/12/22 05:53:49;;;;;;;4.28;1.48;;;;;;;5.18;100.00;98780.94;5029346;28;20029;-80
2022/12/22 05:56:14;;;;;;;2.97;1.40;;;;;;;5.19;100.00;98797.47;5025029;28;20029;-79
2022/12/22 05:58:40;;;;;;;6.50;1.30;;;;;;;5.19;100.00;98787.00;5028707;28;20087;-84
2022/12/22 06:01:06;;;;;;;2.67;1.08;;;;;;;5.19;100.00;98787.81;5045284;28;20040;-83
2022/12/22 06:03:32;;;;;;;9.95;1.25;;;;;;;5.17;100.00;98795.00;5027375;28;20461;-84
2022/12/22 06:05:58;;;;;;;2.65;1.13;;;;;;;5.17;100.00;98792.41;5043328;28;20038;-83
2022/12/22 06:08:25;;;;;;;3.53;1.00;;;;;;;5.16;100.00;98798.59;5012725;28;20029;-84
2022/12/22 06:10:53;;;;;;;8.18;0.88;;;;;;;5.17;100.00;98789.78;5027122;28;20559;-84
2022/12/22 06:13:19;;;;;;;9.25;1.40;;;;;;;5.15;100.00;98780.41;5014144;28;20427;-84
2022/12/22 06:15:44;;;;;;;5.97;1.05;;;;;;;5.16;100.00;98782.88;5015802;28;20116;-84
2022/12/22 06:18:10;;;;;;;3.90;0.70;;;;;;;5.13;100.00;98783.16;5029117;28;20394;-84
2022/12/22 06:20:36;;;;;;;5.38;0.90;;;;;;;5.15;100.00;98785.63;5010123;28;20034;-85
2022/12/22 06:23:02;;;;;;;2.00;0.77;;;;;;;5.14;100.00;98784.84;4995041;28;20029;-84
2022/12/22 06:25:27;;;;;;;6.53;0.88;;;;;;;5.14;100.00;98773.53;5029487;28;20037;-84
2022/12/22 06:27:53;;;;;;;3.30;0.70;;;;;;;5.14;100.00;98768.28;5023282;28;20100;-84
2022/12/22 06:30:19;;;;;;;4.07;0.77;;;;;;;5.12;100.00;98767.59;5019402;28;20037;-84
2022/12/22 06:32:45;;;;;;;7.90;1.17;;;;;;;5.08;100.00;98770.53;5027578;28;20044;-84
2022/12/22 06:35:11;;;;;;;5.07;0.60;;;;;;;5.11;100.00;98758.94;5029178;28;20481;-84
2022/12/22 06:37:37;;;;;;;6.00;0.88;;;;;;;5.10;100.00;98754.66;5042784;28;20048;-84
2022/12/22 06:40:03;;;;;;;7.90;1.00;;;;;;;5.12;100.00;98765.00;5011221;28;20026;-84
2022/12/22 06:45:13;;;;;;;13.45;1.08;;;;;;;5.08;100.00;98751.41;5002402;28;20049;-84
2022/12/22 06:47:38;;;;;;;5.30;0.90;;;;;;;5.11;100.00;98745.84;5033561;28;20034;-84
2022/12/22 06:50:05;;;;;;;7.28;1.08;;;;;;;5.09;100.00;98742.56;5027309;28;20837;-84
2022/12/22 06:52:31;;;;;;;4.88;1.10;;;;;;;5.08;100.00;98748.78;5010401;28;20049;-84
2022/12/22 06:54:57;;;;;;;3.97;1.10;;;;;;;5.09;100.00;98753.03;4976932;28;20034;-81
2022/12/22 06:57:22;;;;;;;11.50;2.35;;;;;;;5.12;100.00;98746.66;5035580;28;20422;-84
2022/12/22 06:59:48;;;;;;;3.50;0.98;;;;;;;5.13;100.00;98753.56;5032368;28;20092;-84
2022/12/22 07:02:14;;;;;;;6.80;1.23;;;;;;;5.11;100.00;98755.50;5027367;28;20133;-84
2022/12/22 07:04:40;;;;;;;8.10;1.20;;;;;;;5.09;100.00;98756.47;5002059;28;20065;-84
2022/12/22 07:07:05;;;;;;;12.23;1.20;;;;;;;5.12;100.00;98763.19;5022292;28;20034;-84
2022/12/22 07:09:31;;;;;;;2.78;1.27;;;;;;;5.13;100.00;98767.44;5030144;28;20033;-84
2022/12/22 07:11:57;;;;;;;6.47;1.23;;;;;;;5.11;100.00;98758.13;5003099;28;20042;-84
2022/12/22 07:14:23;;;;;;;10.50;1.95;;;;;;;5.08;100.00;98757.44;5010591;28;20033;-80
2022/12/22 07:16:48;;;;;;;9.00;1.48;;;;;;;5.11;100.00;98764.19;5026386;28;20040;-79
2022/12/22 07:19:14;;;;;;;12.60;2.17;;;;;;;5.08;100.00;98759.25;5001874;28;20033;-84
2022/12/22 07:21:40;;;;;;;9.93;1.77;;;;;;;5.07;100.00;98754.97;5027182;28;20040;-84
2022/12/22 07:24:06;;;;;;;6.75;1.85;;;;;;;5.06;100.00;98775.13;5026507;28;20030;-79
2022/12/22 07:26:31;;;;;;;4.38;1.77;;;;;;;5.06;100.00;98774.28;5011003;28;20397;-80
2022/12/22 07:28:57;;;;;;;7.07;1.42;;;;;;;5.04;100.00;98784.91;5012485;28;20037;-84
2022/12/22 07:31:23;;;;;;;11.27;1.83;;;;;;;5.07;100.00;98782.00;5026536;28;20048;-83
2022/12/22 07:33:49;;;;;;;12.20;2.05;;;;;;;5.06;100.00;98787.38;5028650;28;20457;-84
2022/12/22 07:36:17;;;;;;;12.15;2.15;;;;;;;5.08;100.00;98781.00;5029739;28;20033;-84
2022/12/22 07:38:46;;;;;;;7.25;1.77;;;;;;;5.08;100.00;98780.19;5024719;28;20104;-80
2022/12/22 07:44:01;;;;;;;7.57;2.35;;;;;;;5.04;100.00;98795.38;5024630;28;20026;-84
2022/12/22 07:46:30;;;;;;;10.30;3.17;;;;;;;5.05;100.00;98794.41;5021544;28;20053;-83
2022/12/22 07:51:41;;;;;;;10.30;2.78;;;;;;;5.06;100.00;98798.69;5027071;28;20051;-83
2022/12/22 07:54:09;;;;;;;15.05;2.97;;;;;;;5.06;100.00;98803.91;5009806;28;20386;-83
2022/12/22 07:56:38;;;;;;;18.13;3.55;;;;;;;5.07;100.00;98809.97;5021023;28;20038;-84
2022/12/22 07:59:04;;;;;;;12.02;2.97;;;;;;;5.04;100.00;98811.09;5032980;28;20085;-79
2022/12/22 08:01:30;;;;;;;13.13;4.00;;;;;;;5.03;100.00;98814.66;5030354;28;20501;-79
2022/12/22 08:03:57;;;;;;;12.43;2.75;;;;;;;5.06;100.00;98824.03;5028502;28;20060;-84
2022/12/22 08:06:23;;;;;;;10.05;3.40;;;;;;;5.07;100.00;98830.91;5026610;28;20440;-84
2022/12/22 08:08:49;;;;;;;18.67;4.00;;;;;;;5.06;100.00;98831.91;5030917;28;20033;-84
2022/12/22 08:11:15;;;;;;;15.65;4.30;;;;;;;5.05;100.00;98836.28;5046694;28;20108;-84
2022/12/22 08:13:42;;;;;;;12.55;3.97;;;;;;;5.05;100.00;98840.69;5027387;28;20040;-84
2022/12/22 08:16:10;;;;;;;17.83;3.95;;;;;;;5.07;100.00;98855.31;5040902;28;20030;-84
2022/12/22 08:18:37;;;;;;;18.40;3.47;;;;;;;5.06;100.00;98852.84;5006430;28;20453;-83
2022/12/22 08:21:05;;;;;;;10.00;3.35;;;;;;;5.06;100.00;98853.69;5023291;28;20401;-84
2022/12/22 08:23:31;;;;;;;13.43;3.03;;;;;;;5.07;100.00;98870.19;5024045;28;20041;-84
2022/12/22 08:26:23;;;;;;;13.00;3.35;;;;;;;5.08;100.00;98869.25;5028311;28;20037;-84
2022/12/22 08:29:01;;;;;;;10.60;2.78;;;;;;;5.06;100.00;98876.41;5023269;28;20060;-84
2022/12/22 08:31:29;;;;;;;7.13;3.05;;;;;;;5.04;100.00;98879.19;5030839;28;20043;-84
2022/12/22 08:33:58;;;;;;;15.18;3.28;;;;;;;5.06;100.00;98886.88;5024762;28;20037;-84
2022/12/22 08:36:24;;;;;;;7.07;2.70;;;;;;;5.04;100.00;98883.59;5013459;28;20790;-84
2022/12/22 08:38:51;;;;;;;6.32;2.75;;;;;;;5.05;100.00;98886.06;5026910;28;20048;-84
2022/12/22 08:41:48;;;;;;;10.70;3.10;;;;;;;5.05;100.00;98888.69;5040254;28;20025;-84
2022/12/22 08:44:03;;;;;;;;;;;;;;;5.03;100.00;98893.22;5021130;28;20108;-84
2022/12/22 08:46:28;;;;;;;11.43;2.27;;;;;;;5.05;100.00;98900.94;5043637;28;20023;-84
2022/12/22 08:48:54;;;;;;;14.32;2.80;;;;;;;5.06;100.00;98897.38;5046355;28;20846;-84
2022/12/22 08:51:20;;;;;;;5.72;2.30;;;;;;;5.08;100.00;98901.47;5029033;28;20033;-84
2022/12/22 08:53:47;;;;;;;10.40;1.90;;;;;;;5.08;100.00;98905.91;5004908;28;20045;-84
2022/12/22 08:56:13;;;;;;;7.03;1.75;;;;;;;5.09;100.00;98902.31;5042489;28;20024;-84
2022/12/22 08:58:39;;;;;;;8.32;1.35;;;;;;;5.08;100.00;98919.00;5029538;28;20029;-84
2022/12/22 09:01:05;;;;;;;6.75;2.08;;;;;;;5.07;100.00;98910.31;5045460;28;20043;-84
2022/12/22 09:03:31;;;;;;;6.93;1.45;;;;;;;5.06;100.00;98910.47;5041281;28;20060;-84
2022/12/22 09:06:01;;;;;;;5.15;1.60;;;;;;;5.09;100.00;98913.63;5012719;28;20044;-84
2022/12/22 09:08:27;;;;;;;6.88;2.38;;;;;;;5.08;100.00;98917.19;5023130;28;20125;-84
2022/12/22 09:10:53;;;;;;;8.73;3.08;;;;;;;5.10;100.00;98919.66;5025453;28;20116;-84
2022/12/22 09:13:19;;;;;;;9.88;4.13;;;;;;;5.13;100.00;98918.56;5022263;28;21374;-83
2022/12/22 09:15:44;;;;;;;9.45;2.75;;;;;;;5.13;100.00;98921.19;5022860;28;20028;-84
2022/12/22 09:18:10;;;;;;;8.18;2.33;;;;;;;5.12;100.00;98922.13;5028065;28;20501;-84
2022/12/22 09:20:36;;;;;;;8.40;1.73;;;;;;;5.11;100.00;98921.31;5022026;28;20088;-85
2022/12/22 09:23:02;;;;;;;8.38;1.70;;;;;;;5.10;100.00;98919.66;5018326;28;20038;-84
2022/12/22 09:25:28;;;;;;;9.32;2.40;;;;;;;5.11;100.00;98925.72;5027671;28;20037;-84
2022/12/22 09:27:54;;;;;;;4.88;1.70;;;;;;;5.09;100.00;98920.66;4993496;28;20025;-84
2022/12/22 09:30:19;;;;;;;4.80;1.83;;;;;;;5.11;100.00;98925.72;4986906;28;20034;-84
2022/12/22 09:32:45;;;;;;;6.43;1.90;;;;;;;5.11;100.00;98930.97;5030796;28;20033;-84
2022/12/22 09:35:11;;;;;;;2.53;1.67;;;;;;;5.11;100.00;98933.59;5029699;28;20029;-84
2022/12/22 09:37:36;;;;;;;5.88;1.67;;;;;;;5.12;100.00;98937.84;5026992;28;20045;-85
2022/12/22 09:40:02;;;;;;;4.60;2.10;;;;;;;5.11;100.00;98938.81;5027648;28;20532;-84
2022/12/22 09:42:31;;;;;;;4.00;1.52;;;;;;;5.10;100.00;98938.00;5027701;28;20433;-84
2022/12/22 09:44:57;;;;;;;3.70;1.88;;;;;;;5.06;100.00;98932.25;5010615;28;20035;-84
2022/12/22 09:47:36;;;;;;;2.10;0.85;;;;;;;5.08;100.00;98934.72;5051791;28;20583;-84
2022/12/22 09:50:04;;;;;;;0.80;0.70;;;;;;;5.05;100.00;98942.84;5029155;28;20025;-84
2022/12/22 09:52:33;;;;;;;0.55;0.55;;;;;;;5.06;100.00;98941.88;5023406;28;20367;-84
2022/12/22 09:55:00;;;;;;;2.15;0.68;;;;;;;5.01;100.00;98939.72;4999865;28;20112;-84
2022/12/22 09:57:31;;;;;;;2.90;0.60;;;;;;;5.04;100.00;98954.28;5014680;28;20041;-84
2022/12/22 10:00:05;;;;;;;1.55;0.98;;;;;;;5.07;100.00;98956.63;5009408;28;20116;-83
2022/12/22 10:03:25;;;;;;;0.63;0.60;;;;;;;5.06;100.00;98965.47;5020609;28;20053;-83
2022/12/22 10:06:17;;;;;;;4.32;1.02;;;;;;;5.12;100.00;98980.59;5026888;28;20548;-84
2022/12/22 10:08:43;;;;;;;2.22;1.25;;;;;;;5.22;100.00;98989.22;5027835;28;20690;-83
2022/12/22 10:11:15;;;;;;;1.08;0.93;;;;;;;5.41;100.00;98991.88;5011606;28;20041;-83
2022/12/22 10:13:41;;;;;;;2.50;1.10;;;;;;;5.55;100.00;98994.00;5025151;28;20063;-84
2022/12/22 10:16:23;;;;;;;4.22;2.40;;;;;;;5.65;100.00;99017.53;5004200;28;20398;-84
2022/12/22 10:19:10;;;;;;;3.55;1.95;;;;;;;5.74;100.00;99005.34;5025892;28;20865;-83
2022/12/22 10:21:36;;;;;;;3.42;2.00;;;;;;;5.81;100.00;99016.88;5022601;28;20374;-83
2022/12/22 10:24:37;;;;;;;1.90;1.60;;;;;;;5.88;100.00;99032.84;5029546;28;20025;-83
2022/12/22 10:27:03;;;;;;;1.88;1.38;;;;;;;5.95;100.00;99028.66;5005987;28;20130;-84
2022/12/22 10:29:31;;;;;;;2.15;1.55;;;;;;;6.06;100.00;99026.81;5026893;28;20125;-83
2022/12/22 10:32:11;;;;;;;1.48;0.88;;;;;;;6.15;100.00;99019.81;5019898;28;20064;-84
2022/12/22 10:34:42;;;;;;;1.85;1.00;;;;;;;6.17;100.00;99028.38;5035860;28;20124;-83
2022/12/22 10:37:08;;;;;;;1.90;1.10;;;;;;;6.23;100.00;99040.09;5028939;28;20025;-83
2022/12/22 10:39:35;;;;;;;1.65;1.50;;;;;;;6.25;100.00;99043.34;5023910;28;20040;-84
2022/12/22 10:42:08;;;;;;;2.03;1.23;;;;;;;6.26;100.00;99045.81;5003341;28;20957;-84
2022/12/22 10:44:37;;;;;;;2.95;1.13;;;;;;;6.25;100.00;99054.69;5005110;28;20041;-84
2022/12/22 10:47:18;;;;;;;2.60;1.20;;;;;;;6.24;100.00;99065.34;5034079;28;20040;-84
2022/12/22 10:49:47;;;;;;;1.75;0.90;;;;;;;6.22;100.00;99062.88;5040540;28;20493;-84
2022/12/22 10:52:13;;;;;;;2.38;1.05;;;;;;;6.23;100.00;99064.50;5023402;28;20829;-84
2022/12/22 10:54:41;;;;;;;3.75;1.45;;;;;;;6.26;100.00;99064.19;5027436;28;20120;-84
2022/12/22 10:57:13;;;;;;;2.25;1.30;;;;;;;6.31;100.00;99053.25;5022900;28;20506;-84
2022/12/22 10:59:50;;;;;;;2.42;1.10;;;;;;;6.37;100.00;99059.72;5013740;28;20060;-79
2022/12/22 11:02:27;;;;;;;1.15;0.90;;;;;;;6.42;100.00;99067.94;5014294;28;20046;-80
2022/12/22 11:05:14;;;;;;;1.65;1.05;;;;;;;6.47;100.00;99063.06;5041510;28;20057;-79
2022/12/22 11:07:43;;;;;;;4.45;1.45;;;;;;;6.48;100.00;99051.59;5004997;28;21581;-84
2022/12/22 11:10:40;;;;;;;1.23;1.02;;;;;;;6.54;100.00;99060.66;5043375;28;20026;-84
2022/12/22 11:13:20;;;;;;;1.73;1.35;;;;;;;6.59;100.00;99063.66;5036837;28;20029;-79
2022/12/22 11:15:52;;;;;;;2.08;1.52;;;;;;;6.62;100.00;99073.03;5017694;28;20033;-79
2022/12/22 11:18:44;;;;;;;4.32;1.65;;;;;;;6.69;100.00;99069.63;5024342;28;20030;-79
2022/12/22 11:21:10;;;;;;;2.35;2.10;;;;;;;6.69;100.00;99072.25;5021831;28;20525;-79
2022/12/22 11:24:07;;;;;;;3.65;2.58;;;;;;;6.78;100.00;99074.94;5008271;28;20136;-84
2022/12/22 11:26:47;;;;;;;4.82;2.85;;;;;;;6.81;100.00;99070.22;5006249;28;20397;-84
2022/12/22 11:29:35;;;;;;;4.80;3.72;;;;;;;6.86;100.00;99068.91;5020420;28;20065;-84
2022/12/22 11:32:20;;;;;;;6.90;2.60;;;;;;;6.86;100.00;99093.41;5004587;28;20431;-84
2022/12/22 11:35:10;;;;;;;3.22;1.58;;;;;;;6.85;100.00;99099.59;5007926;28;20418;-84
2022/12/22 11:37:45;;;;;;;3.78;1.70;;;;;;;6.79;100.00;99101.06;5016786;28;20041;-85
2022/12/22 11:40:48;;;;;;;4.27;2.57;;;;;;;6.79;100.00;99087.91;5030750;28;20398;-84
2022/12/22 11:43:20;;;;;;;3.38;2.30;;;;;;;6.77;100.00;99087.25;5027196;28;20034;-84
2022/12/22 11:45:56;;;;;;;3.35;2.88;;;;;;;6.82;100.00;99081.53;5034016;28;20048;-84
2022/12/22 11:48:24;;;;;;;4.93;3.22;;;;;;;6.86;100.00;99090.78;5020840;28;20033;-84
2022/12/22 11:50:55;;;;;;;5.75;3.55;;;;;;;6.89;100.00;99089.63;5034162;28;20033;-83
2022/12/22 11:53:27;;;;;;;4.53;3.40;;;;;;;6.88;100.00;99099.28;5022591;28;20037;-84
2022/12/22 11:56:28;;;;;;;5.85;3.60;;;;;;;6.91;100.00;99090.31;5018475;28;20021;-84
2022/12/22 11:59:12;;;;;;;6.97;3.80;;;;;;;6.90;100.00;99084.22;5023794;28;20056;-84
2022/12/22 12:01:59;;;;;;;3.42;2.95;;;;;;;6.91;100.00;99090.31;5017377;28;20049;-84
2022/12/22 12:04:45;;;;;;;3.47;2.78;;;;;;;6.88;100.00;99094.03;5013411;28;20042;-83
2022/12/22 12:07:36;;;;;;;3.88;3.20;;;;;;;6.90;100.00;99101.78;5020917;28;20046;-84
2022/12/22 12:10:28;;;;;;;3.35;2.83;;;;;;;6.91;100.00;99095.56;5038995;28;20079;-84
2022/12/22 12:13:02;;;;;;;2.70;2.50;;;;;;;6.91;100.00;99092.94;5020838;28;20083;-84
2022/12/22 12:15:45;;;;;;;2.75;2.47;;;;;;;6.93;100.00;99094.41;5014718;28;20554;-84
2022/12/22 12:18:19;;;;;;;4.43;3.20;;;;;;;6.92;100.00;99091.94;5009831;28;20038;-84
2022/12/22 12:20:55;;;;;;;4.07;2.80;;;;;;;6.92;100.00;99099.81;5039295;28;20340;-84
2022/12/22 12:23:40;;;;;;;3.70;3.25;;;;;;;6.90;100.00;99096.50;5019323;28;20944;-84
2022/12/22 12:26:55;;;;;;;4.20;3.80;;;;;;;6.90;100.00;99105.22;5024087;28;20033;-84
2022/12/22 12:29:27;;;;;;;5.03;4.18;;;;;;;6.88;100.00;99091.41;5001656;28;20053;-84
2022/12/22 12:32:00;;;;;;;5.47;4.15;;;;;;;6.89;100.00;99085.19;5035690;28;20049;-85
2022/12/22 12:34:30;;;;;;;6.32;4.28;;;;;;;6.91;100.00;99088.47;5017549;28;20038;-85
2022/12/22 12:37:05;;;;;;;6.47;3.53;;;;;;;6.91;100.00;99085.84;5024572;28;20450;-85
2022/12/22 12:39:33;;;;;;;7.28;4.70;;;;;;;6.94;100.00;99075.03;5023350;28;20100;-85
2022/12/22 12:42:38;;;;;;;7.28;3.80;;;;;;;7.01;100.00;99075.25;5027361;28;20477;-85
2022/12/22 12:45:44;;;;;;;5.05;3.47;;;;;;;7.01;100.00;99075.25;5037163;28;20038;-84
2022/12/22 12:48:35;;;;;;;6.85;3.25;;;;;;;7.01;100.00;99077.88;5027259;28;20079;-84
2022/12/22 12:51:01;;;;;;;4.30;3.30;;;;;;;7.01;100.00;99077.88;5012462;28;20041;-84
2022/12/22 12:53:29;;;;;;;4.55;3.35;;;;;;;7.07;100.00;99058.88;5024382;28;20387;-84
2022/12/22 12:55:56;;;;;;;4.45;2.75;;;;;;;7.13;100.00;99061.84;5039158;28;20500;-84
2022/12/22 12:58:34;;;;;;;4.10;2.90;;;;;;;7.18;100.00;99065.66;5030724;28;20025;-84
2022/12/22 13:01:02;;;;;;;3.00;2.58;;;;;;;7.22;100.00;99062.69;5028493;28;20044;-84
2022/12/22 13:03:27;;;;;;;4.03;2.80;;;;;;;7.24;100.00;99066.00;4967914;28;20112;-84
2022/12/22 13:05:55;;;;;;;3.88;2.90;;;;;;;7.28;100.00;99056.81;5026802;28;20037;-84
2022/12/22 13:08:21;;;;;;;5.55;3.58;;;;;;;7.31;100.00;99070.47;5027702;28;20354;-84
2022/12/22 13:10:48;;;;;;;5.38;3.85;;;;;;;7.38;100.00;99081.19;5038377;28;20438;-85
2022/12/22 13:13:20;;;;;;;6.78;3.50;;;;;;;7.45;100.00;99086.66;5025594;28;20034;-83
2022/12/22 13:16:01;;;;;;;3.90;2.97;;;;;;;7.47;100.00;99091.75;5011593;28;20029;-84
2022/12/22 13:18:33;;;;;;;5.95;3.60;;;;;;;7.49;100.00;99071.38;5028149;28;20034;-83
2022/12/22 13:21:06;;;;;;;6.70;3.22;;;;;;;7.49;100.00;99056.44;5027799;28;20120;-84
2022/12/22 13:23:36;;;;;;;8.10;3.38;;;;;;;7.56;100.00;99073.19;5024701;28;20062;-84
2022/12/22 13:26:13;;;;;;;4.28;2.80;;;;;;;7.65;100.00;99078.50;5018007;28;20041;-84
2022/12/22 13:28:41;;;;;;;3.55;2.63;;;;;;;7.68;100.00;99088.69;4992618;28;20037;-84
2022/12/22 13:31:18;;;;;;;10.93;2.95;;;;;;;7.77;100.00;99077.22;5025479;28;20037;-84
2022/12/22 13:33:45;;;;;;;3.55;2.60;;;;;;;7.80;100.00;99070.84;5026403;28;20694;-84
2022/12/22 13:36:19;;;;;;;6.57;3.08;;;;;;;7.91;100.00;99073.16;5019132;28;20060;-84
2022/12/22 13:38:45;;;;;;;3.42;2.75;;;;;;;7.91;100.00;99073.16;5026774;28;20041;-84
2022/12/22 13:41:19;;;;;;;3.65;2.20;;;;;;;7.95;100.00;99071.00;5028107;28;20032;-84
2022/12/22 13:43:53;;;;;;;4.40;2.30;;;;;;;7.94;100.00;99067.59;5028387;28;20163;-84
2022/12/22 13:46:19;;;;;;;3.78;2.10;;;;;;;7.90;100.00;99058.34;5021059;28;20065;-84
2022/12/22 13:48:48;;;;;;;2.63;2.42;;;;;;;7.94;100.00;99059.69;4999817;28;20205;-84
2022/12/22 13:51:24;;;;;;;3.90;2.80;;;;;;;8.00;100.00;99050.31;5026143;28;20025;-84
2022/12/22 13:53:53;;;;;;;3.47;2.35;;;;;;;7.99;100.00;99059.19;5025258;28;20124;-84
2022/12/22 13:56:37;;;;;;;3.30;2.10;;;;;;;7.97;100.00;99068.22;5023226;28;20064;-83
2022/12/22 13:59:03;;;;;;;7.53;2.47;;;;;;;7.91;100.00;99069.69;5020635;28;20040;-84
2022/12/22 14:01:29;;;;;;;5.82;2.67;;;;;;;7.93;100.00;99068.53;5022411;28;20037;-84
2022/12/22 14:04:06;;;;;;;5.53;2.58;;;;;;;7.98;100.00;99064.63;5011916;28;20529;-84
2022/12/22 14:06:38;;;;;;;6.10;3.40;;;;;;;7.96;100.00;99067.41;5039604;28;20034;-84
2022/12/22 14:09:26;;;;;;;6.88;3.78;;;;;;;7.96;100.00;99063.97;5001580;28;20103;-84
2022/12/22 14:12:01;;;;;;;6.57;4.22;;;;;;;7.94;100.00;99066.75;5027384;28;20048;-84
2022/12/22 14:14:48;;;;;;;3.53;3.00;;;;;;;7.91;100.00;99067.06;5021913;28;20482;-84
2022/12/22 14:17:35;;;;;;;9.05;5.35;;;;;;;7.89;100.00;99071.66;5025437;28;20044;-84
2022/12/22 14:20:24;;;;;;;4.07;3.33;;;;;;;7.81;100.00;99067.22;5026361;28;20402;-84
2022/12/22 14:23:14;;;;;;;6.72;3.22;;;;;;;7.74;100.00;99069.66;5012274;28;20489;-84
2022/12/22 14:25:43;;;;;;;7.35;3.40;;;;;;;7.69;100.00;99074.59;5013058;28;20124;-84
2022/12/22 14:28:20;;;;;;;6.93;3.80;;;;;;;7.66;100.00;99085.44;5011191;28;20045;-84
2022/12/22 14:30:51;;;;;;;6.55;4.50;;;;;;;7.62;100.00;99092.81;5022737;28;20037;-84
2022/12/22 14:33:26;;;;;;;9.52;5.45;;;;;;;7.54;100.00;99100.66;5004798;28;20417;-83
2022/12/22 14:36:14;;;;;;;8.40;5.32;;;;;;;7.45;100.00;99097.97;4985406;28;20168;-84
2022/12/22 14:38:43;;;;;;;7.97;5.25;;;;;;;7.36;100.00;99106.81;5022206;28;20528;-84
2022/12/22 14:44:03;;;;;;;9.20;4.90;;;;;;;7.15;100.00;99107.19;5020699;28;20108;-83
2022/12/22 14:46:30;;;;;;;10.68;7.35;;;;;;;7.11;100.00;99111.09;5024473;28;20041;-84
2022/12/22 14:48:58;;;;;;;7.53;4.65;;;;;;;7.02;100.00;99116.31;5022068;28;20033;-84
2022/12/22 14:51:25;;;;;;;20.00;13.77;;;;;;;6.93;100.00;99104.91;5018862;28;20029;-84
2022/12/22 14:53:57;;;;;;;20.92;15.18;;;;;;;6.89;100.00;99110.63;5014859;28;20670;-84
2022/12/22 14:56:25;;;;;;;14.68;9.20;;;;;;;6.78;100.00;99109.91;5003705;28;20045;-84
2022/12/22 14:59:07;;;;;;;15.30;6.97;;;;;;;6.67;100.00;99124.09;5018475;28;20042;-83
2022/12/22 15:01:33;;;;;;;7.18;4.57;;;;;;;6.55;100.00;99141.88;5013458;28;20407;-84
2022/12/22 15:04:02;;;;;;;12.85;8.75;;;;;;;6.43;100.00;99143.91;5028469;28;20040;-84
2022/12/22 15:06:28;;;;;;;9.57;7.43;;;;;;;6.31;100.00;99160.84;5021645;28;20045;-84
2022/12/22 15:09:14;;;;;;;10.32;6.95;;;;;;;6.20;100.00;99167.97;5007089;28;20049;-84
2022/12/22 15:11:50;;;;;;;11.15;6.18;;;;;;;6.09;100.00;99173.41;5009077;28;20466;-84
2022/12/22 15:14:23;;;;;;;;;;;;;;;5.92;100.00;99175.81;5005565;28;20513;-84
2022/12/22 15:16:53;;;;;;;7.80;5.13;;;;;;;5.93;100.00;99176.63;5029791;28;19917;-84
2022/12/22 15:19:22;;;;;;;9.85;6.35;;;;;;;5.87;100.00;99172.81;5002952;28;20033;-84
2022/12/22 15:21:49;;;;;;;6.28;5.25;;;;;;;5.81;100.00;99170.75;5016621;28;20041;-83
2022/12/22 15:24:16;;;;;;;8.40;5.35;;;;;;;5.73;100.00;99174.13;5025605;28;20033;-84
2022/12/22 15:26:44;;;;;;;7.47;5.28;;;;;;;5.61;100.00;99172.63;5008618;28;20080;-84
2022/12/22 15:29:10;;;;;;;7.13;5.40;;;;;;;5.48;100.00;99186.06;5023220;28;20103;-84
2022/12/22 15:31:41;;;;;;;9.10;5.13;;;;;;;5.41;100.00;99170.06;5020191;28;20114;-84
2022/12/22 15:34:22;;;;;;;6.00;4.13;;;;;;;5.33;100.00;99189.13;5019622;28;20029;-84